createdAt,value
2023-02-11T00:02:11.713Z,-5.44
2023-02-11T00:05:19.740Z,-5.47
2023-02-11T00:05:23.730Z,-5.44
2023-02-11T00:09:03.167Z,-5.49
2023-02-11T00:11:26.205Z,-5.54
2023-02-11T00:14:21.822Z,-5.57
2023-02-11T00:17:03.128Z,-5.61
2023-02-11T00:20:16.710Z,-5.64
2023-02-11T00:22:45.600Z,-5.68
2023-02-11T00:25:15.401Z,-5.71
2023-02-11T00:27:44.947Z,-5.72
2023-02-11T00:30:20.469Z,-5.75
2023-02-11T00:33:00.427Z,-5.73
2023-02-11T00:35:28.038Z,-5.72
2023-02-11T00:38:06.239Z,-5.72
2023-02-11T00:41:03.964Z,-5.73
2023-02-11T00:43:58.620Z,-5.70
2023-02-11T00:46:43.608Z,-5.71
2023-02-11T00:49:38.371Z,-5.71
2023-02-11T00:52:33.546Z,-5.70
2023-02-11T00:55:38.598Z,-5.71
2023-02-11T00:58:27.545Z,-5.72
2023-02-11T01:01:07.377Z,-5.75
2023-02-11T01:04:25.624Z,-5.77
2023-02-11T01:07:07.893Z,-5.79
2023-02-11T01:10:12.427Z,-5.81
2023-02-11T01:13:35.666Z,-5.83
2023-02-11T01:16:57.583Z,-5.84
2023-02-11T01:20:13.339Z,-5.87
2023-02-11T01:23:12.434Z,-5.89
2023-02-11T01:26:11.630Z,-5.91
2023-02-11T01:29:02.480Z,-5.93
2023-02-11T01:33:30.861Z,-5.96
2023-02-11T01:35:04.457Z,-5.97
2023-02-11T01:38:06.512Z,-6.00
2023-02-11T01:41:07.784Z,-6.02
2023-02-11T01:44:40.094Z,-6.05
2023-02-11T01:47:13.573Z,-6.09
2023-02-11T01:50:02.148Z,-6.11
2023-02-11T01:52:57.204Z,-6.14
2023-02-11T01:55:51.898Z,-6.15
2023-02-11T01:58:53.286Z,-6.15
2023-02-11T02:02:15.733Z,-6.14
2023-02-11T02:05:12.333Z,-6.15
2023-02-11T02:08:08.477Z,-6.13
2023-02-11T02:10:47.069Z,-6.11
2023-02-11T02:13:37.226Z,-6.11
2023-02-11T02:16:42.731Z,-6.12
2023-02-11T02:19:56.387Z,-6.12
2023-02-11T02:23:30.176Z,-6.13
2023-02-11T02:30:02.955Z,-6.14
2023-02-11T02:34:55.677Z,-6.16
2023-02-11T02:38:00.627Z,-6.22
2023-02-11T02:41:17.224Z,-6.24
2023-02-11T02:44:16.635Z,-6.30
2023-02-11T02:47:00.488Z,-6.34
2023-02-11T02:50:04.535Z,-6.37
2023-02-11T02:53:09.836Z,-6.42
2023-02-11T02:55:51.441Z,-6.45
2023-02-11T02:59:18.517Z,-6.46
2023-02-11T03:02:34.935Z,-6.48
2023-02-11T03:05:25.220Z,-6.50
2023-02-11T03:08:38.028Z,-6.50
2023-02-11T03:11:16.798Z,-6.50
2023-02-11T03:13:53.012Z,-6.51
2023-02-11T03:16:53.866Z,-6.51
2023-02-11T03:20:20.830Z,-6.51
2023-02-11T03:27:49.326Z,-6.50
2023-02-11T03:29:59.599Z,-6.56
2023-02-11T03:33:20.087Z,-6.58
2023-02-11T03:36:29.139Z,-6.59
2023-02-11T03:39:58.074Z,-6.60
2023-02-11T03:42:40.887Z,-6.62
2023-02-11T03:45:45.636Z,-6.64
2023-02-11T03:49:11.899Z,-6.66
2023-02-11T03:52:03.055Z,-6.68
2023-02-11T03:55:05.418Z,-6.70
2023-02-11T03:58:04.332Z,-6.72
2023-02-11T04:01:11.632Z,-6.75
2023-02-11T04:04:06.725Z,-6.76
2023-02-11T04:07:07.546Z,-6.77
2023-02-11T04:09:36.585Z,-6.80
2023-02-11T04:12:28.937Z,-6.80
2023-02-11T04:15:43.370Z,-6.83
2023-02-11T04:18:23.346Z,-6.85
2023-02-11T04:20:51.566Z,-6.86
2023-02-11T04:26:35.304Z,-6.89
2023-02-11T04:30:04.864Z,-6.89
2023-02-11T04:33:13.105Z,-6.89
2023-02-11T04:36:00.501Z,-6.86
2023-02-11T04:39:54.505Z,-6.87
2023-02-11T04:43:48.154Z,-6.81
2023-02-11T04:47:25.422Z,-6.77
2023-02-11T04:49:26.046Z,-6.72
2023-02-11T04:52:07.199Z,-6.68
2023-02-11T04:58:21.417Z,-6.62
2023-02-11T05:01:29.253Z,-6.60
2023-02-11T05:05:27.763Z,-6.61
2023-02-11T05:08:10.229Z,-6.60
2023-02-11T05:10:58.045Z,-6.61
2023-02-11T05:13:44.037Z,-6.62
2023-02-11T05:16:12.193Z,-6.63
2023-02-11T05:18:41.991Z,-6.63
2023-02-11T05:21:20.922Z,-6.66
2023-02-11T05:23:58.318Z,-6.67
2023-02-11T05:26:25.604Z,-6.71
2023-02-11T05:28:57.751Z,-6.75
2023-02-11T05:31:30.397Z,-6.79
2023-02-11T05:33:57.722Z,-6.82
2023-02-11T05:36:28.389Z,-6.83
2023-02-11T05:38:57.617Z,-6.85
2023-02-11T05:41:24.872Z,-6.86
2023-02-11T05:43:56.297Z,-6.86
2023-02-11T05:46:23.451Z,-6.86
2023-02-11T05:48:50.516Z,-6.85
2023-02-11T05:51:19.820Z,-6.84
2023-02-11T05:53:50.421Z,-6.82
2023-02-11T05:56:29.052Z,-6.79
2023-02-11T05:58:59.450Z,-6.75
2023-02-11T06:01:34.093Z,-6.74
2023-02-11T06:04:04.046Z,-6.75
2023-02-11T06:06:31.113Z,-6.74
2023-02-11T06:08:57.916Z,-6.72
2023-02-11T06:11:24.914Z,-6.67
2023-02-11T06:13:56.105Z,-6.63
2023-02-11T06:16:24.591Z,-6.58
2023-02-11T06:18:51.511Z,-6.51
2023-02-11T06:21:18.271Z,-6.46
2023-02-11T06:23:45.244Z,-6.41
2023-02-11T06:26:22.354Z,-6.34
2023-02-11T06:28:50.195Z,-6.26
2023-02-11T06:31:20.354Z,-6.17
2023-02-11T06:33:52.062Z,-6.02
2023-02-11T06:36:20.755Z,-5.88
2023-02-11T06:38:48.908Z,-5.74
2023-02-11T06:41:19.558Z,-5.63
2023-02-11T06:43:47.120Z,-5.54
2023-02-11T06:46:17.642Z,-5.44
2023-02-11T06:48:45.100Z,-5.34
2023-02-11T06:51:13.678Z,-5.25
2023-02-11T06:53:44.096Z,-5.14
2023-02-11T06:56:14.197Z,-5.00
2023-02-11T06:58:41.357Z,-4.84
2023-02-11T07:01:11.501Z,-4.68
2023-02-11T07:03:43.191Z,-4.55
2023-02-11T07:06:14.186Z,-4.46
2023-02-11T07:08:42.544Z,-4.38
2023-02-11T07:11:15.219Z,-4.33
2023-02-11T07:13:42.784Z,-4.28
2023-02-11T07:16:14.857Z,-4.20
2023-02-11T07:18:42.502Z,-4.09
2023-02-11T07:21:12.236Z,-4.00
2023-02-11T07:23:40.417Z,-3.89
2023-02-11T07:26:10.018Z,-3.79
2023-02-11T07:28:38.284Z,-3.66
2023-02-11T07:31:13.888Z,-3.56
2023-02-11T07:33:41.662Z,-3.45
2023-02-11T07:36:10.442Z,-3.35
2023-02-11T07:38:38.325Z,-3.23
2023-02-11T07:41:08.845Z,-3.13
2023-02-11T07:43:37.900Z,-3.00
2023-02-11T07:46:16.873Z,-2.91
2023-02-11T07:48:44.108Z,-2.81
2023-02-11T07:51:13.105Z,-2.72
2023-02-11T07:53:40.666Z,-2.61
2023-02-11T07:56:08.959Z,-2.50
2023-02-11T07:58:36.932Z,-2.37
2023-02-11T08:01:06.940Z,-2.23
2023-02-11T08:03:36.274Z,-2.09
2023-02-11T08:06:14.546Z,-1.97
2023-02-11T08:08:42.271Z,-1.86
2023-02-11T08:11:14.394Z,-1.72
2023-02-11T08:13:41.697Z,-1.60
2023-02-11T08:16:09.181Z,-1.48
2023-02-11T08:18:36.420Z,-1.36
2023-02-11T08:21:10.618Z,-1.25
2023-02-11T08:23:42.373Z,-1.16
2023-02-11T08:26:15.147Z,-1.05
2023-02-11T08:28:44.292Z,-0.93
2023-02-11T08:31:14.524Z,-0.79
2023-02-11T08:33:41.511Z,-0.66
2023-02-11T08:36:22.827Z,-0.53
2023-02-11T08:38:49.771Z,-0.41
2023-02-11T08:41:20.939Z,-0.32
2023-02-11T08:43:48.886Z,-0.28
2023-02-11T08:46:18.823Z,-0.23
2023-02-11T08:48:47.975Z,-0.12
2023-02-11T08:51:20.332Z,0.04
2023-02-11T08:53:48.366Z,0.21
2023-02-11T08:56:16.147Z,0.34
2023-02-11T08:58:43.362Z,0.47
2023-02-11T09:01:15.147Z,0.59
2023-02-11T09:03:44.582Z,0.69
2023-02-11T09:06:18.519Z,0.78
2023-02-11T09:08:53.336Z,0.83
2023-02-11T09:11:28.026Z,0.93
2023-02-11T09:13:57.209Z,0.96
2023-02-11T09:16:27.422Z,0.98
2023-02-11T09:19:00.086Z,0.99
2023-02-11T09:21:27.536Z,0.97
2023-02-11T09:23:54.315Z,0.93
2023-02-11T09:26:24.183Z,0.94
2023-02-11T09:28:51.506Z,0.99
2023-02-11T09:31:25.046Z,1.04
2023-02-11T09:33:55.158Z,1.12
2023-02-11T09:36:24.838Z,1.23
2023-02-11T09:38:52.391Z,1.28
2023-02-11T09:41:44.033Z,1.41
2023-02-11T09:44:23.865Z,1.59
2023-02-11T09:47:08.766Z,1.73
2023-02-11T09:49:43.905Z,1.81
2023-02-11T09:52:21.601Z,1.91
2023-02-11T09:54:56.933Z,2.01
2023-02-11T09:57:30.492Z,2.09
2023-02-11T09:59:57.242Z,2.21
2023-02-11T10:02:25.807Z,2.38
2023-02-11T10:05:15.970Z,2.55
2023-02-11T10:08:35.008Z,2.60
2023-02-11T10:11:33.341Z,2.73
2023-02-11T10:14:15.536Z,2.66
2023-02-11T10:16:50.867Z,2.63
2023-02-11T10:19:49.791Z,2.63
2023-02-11T10:22:25.219Z,2.61
2023-02-11T10:24:59.175Z,2.63
2023-02-11T10:27:38.255Z,2.70
2023-02-11T10:30:29.580Z,2.75
2023-02-11T10:33:15.055Z,2.79
2023-02-11T10:35:43.353Z,2.77
2023-02-11T10:38:11.221Z,2.73
2023-02-11T10:40:38.147Z,2.68
2023-02-11T10:43:09.893Z,2.61
2023-02-11T10:45:51.369Z,2.57
2023-02-11T10:48:41.670Z,2.49
2023-02-11T10:51:12.306Z,2.46
2023-02-11T10:53:41.842Z,2.45
2023-02-11T10:56:13.844Z,2.48
2023-02-11T10:58:57.025Z,2.50
2023-02-11T11:01:38.922Z,2.52
2023-02-11T11:04:06.102Z,2.57
2023-02-11T11:06:34.640Z,2.61
2023-02-11T11:09:01.496Z,2.66
2023-02-11T11:11:30.910Z,2.67
2023-02-11T11:14:03.734Z,2.65
2023-02-11T11:16:35.423Z,2.56
2023-02-11T11:19:05.709Z,2.50
2023-02-11T11:21:44.825Z,2.49
2023-02-11T11:24:28.699Z,2.51
2023-02-11T11:27:00.476Z,2.51
2023-02-11T11:29:51.127Z,2.58
2023-02-11T11:32:27.222Z,2.69
2023-02-11T11:34:56.796Z,2.78
2023-02-11T11:37:36.593Z,2.89
2023-02-11T11:40:23.987Z,3.08
2023-02-11T11:43:23.481Z,3.27
2023-02-11T11:45:59.084Z,3.38
2023-02-11T11:48:39.677Z,3.46
2023-02-11T11:51:11.425Z,3.47
2023-02-11T11:53:51.527Z,3.44
2023-02-11T11:56:22.037Z,3.50
2023-02-11T11:58:52.049Z,3.55
2023-02-11T12:01:43.883Z,3.64
2023-02-11T12:04:29.064Z,3.67
2023-02-11T12:07:37.294Z,3.70
2023-02-11T12:10:22.816Z,3.72
2023-02-11T12:13:06.687Z,3.69
2023-02-11T12:16:07.119Z,3.64
2023-02-11T12:19:00.181Z,3.61
2023-02-11T12:21:51.620Z,3.61
2023-02-11T12:24:29.080Z,3.65
2023-02-11T12:27:12.219Z,3.64
2023-02-11T12:29:56.587Z,3.65
2023-02-11T12:32:44.452Z,3.70
2023-02-11T12:35:46.242Z,3.73
2023-02-11T12:38:22.780Z,3.72
2023-02-11T12:41:10.752Z,3.68
2023-02-11T12:43:40.524Z,3.68
2023-02-11T12:46:07.378Z,3.67
2023-02-11T12:49:11.754Z,3.68
2023-02-11T12:51:57.233Z,3.62
2023-02-11T12:54:33.889Z,3.54
2023-02-11T12:57:22.097Z,3.49
2023-02-11T13:00:15.707Z,3.42
2023-02-11T13:02:47.869Z,3.36
2023-02-11T13:05:40.126Z,3.35
2023-02-11T13:08:30.271Z,3.31
2023-02-11T13:11:14.272Z,3.23
2023-02-11T13:13:57.446Z,3.18
2023-02-11T13:16:40.602Z,3.09
2023-02-11T13:19:43.297Z,2.95
2023-02-11T13:22:10.120Z,2.78
2023-02-11T13:24:51.023Z,2.65
2023-02-11T13:27:50.214Z,2.51
2023-02-11T13:30:31.842Z,2.45
2023-02-11T13:33:01.565Z,2.44
2023-02-11T13:35:32.384Z,2.45
2023-02-11T13:38:29.355Z,2.46
2023-02-11T13:41:04.473Z,2.47
2023-02-11T13:43:34.359Z,2.46
2023-02-11T13:46:11.313Z,2.43
2023-02-11T13:48:52.499Z,2.40
2023-02-11T13:51:38.241Z,2.35
2023-02-11T13:54:08.296Z,2.28
2023-02-11T13:56:42.192Z,2.25
2023-02-11T13:59:24.140Z,2.20
2023-02-11T14:02:10.739Z,2.15
2023-02-11T14:05:22.211Z,2.09
2023-02-11T14:08:25.818Z,2.04
2023-02-11T14:11:37.128Z,1.98
2023-02-11T14:14:25.189Z,1.92
2023-02-11T14:17:11.929Z,1.89
2023-02-11T14:19:44.665Z,1.88
2023-02-11T14:22:27.203Z,1.89
2023-02-11T14:25:04.630Z,1.89
2023-02-11T14:27:37.744Z,1.89
2023-02-11T14:30:26.385Z,1.94
2023-02-11T14:33:06.901Z,1.98
2023-02-11T14:35:48.652Z,1.99
2023-02-11T14:39:03.297Z,1.98
2023-02-11T14:41:40.187Z,1.95
2023-02-11T14:44:16.362Z,1.93
2023-02-11T14:46:46.114Z,1.89
2023-02-11T14:49:25.391Z,1.86
2023-02-11T14:51:55.458Z,1.80
2023-02-11T14:54:26.176Z,1.73
2023-02-11T14:57:11.430Z,1.68
2023-02-11T14:59:38.778Z,1.63
2023-02-11T15:02:31.842Z,1.57
2023-02-11T15:05:16.597Z,1.51
2023-02-11T15:07:49.888Z,1.44
2023-02-11T15:10:26.017Z,1.39
2023-02-11T15:12:52.936Z,1.33
2023-02-11T15:15:19.682Z,1.28
2023-02-11T15:17:46.753Z,1.24
2023-02-11T15:20:26.169Z,1.21
2023-02-11T15:23:02.083Z,1.20
2023-02-11T15:25:34.052Z,1.17
2023-02-11T15:28:20.535Z,1.13
2023-02-11T15:30:55.795Z,1.08
2023-02-11T15:33:29.468Z,1.03
2023-02-11T15:35:56.924Z,0.97
2023-02-11T15:38:23.706Z,0.91
2023-02-11T15:41:00.131Z,0.83
2023-02-11T15:43:55.126Z,0.75
2023-02-11T15:46:23.044Z,0.66
2023-02-11T15:48:54.655Z,0.58
2023-02-11T15:51:24.733Z,0.49
2023-02-11T15:53:58.063Z,0.43
2023-02-11T15:56:43.580Z,0.40
2023-02-11T15:59:25.228Z,0.40
2023-02-11T16:01:53.944Z,0.44
2023-02-11T16:04:24.714Z,0.51
2023-02-11T16:06:53.680Z,0.58
2023-02-11T16:09:36.511Z,0.63
2023-02-11T16:12:21.886Z,0.69
2023-02-11T16:14:48.557Z,0.73
2023-02-11T16:17:18.396Z,0.76
2023-02-11T16:19:50.330Z,0.78
2023-02-11T16:22:26.517Z,0.79
2023-02-11T16:24:58.530Z,0.80
2023-02-11T16:27:27.982Z,0.82
2023-02-11T16:29:56.062Z,0.85
2023-02-11T16:32:29.878Z,0.88
2023-02-11T16:35:01.361Z,0.92
2023-02-11T16:37:28.271Z,0.93
2023-02-11T16:39:57.637Z,0.93
2023-02-11T16:42:24.645Z,0.93
2023-02-11T16:44:54.347Z,0.92
2023-02-11T16:47:28.048Z,0.91
2023-02-11T16:49:58.615Z,0.89
2023-02-11T16:52:25.724Z,0.88
2023-02-11T16:54:52.789Z,0.85
2023-02-11T16:57:26.919Z,0.83
2023-02-11T16:59:54.852Z,0.81
2023-02-11T17:02:29.085Z,0.79
2023-02-11T17:04:59.999Z,0.76
2023-02-11T17:07:29.757Z,0.74
2023-02-11T17:09:56.704Z,0.72
2023-02-11T17:12:26.439Z,0.72
2023-02-11T17:15:02.905Z,0.72
2023-02-11T17:17:34.026Z,0.73
2023-02-11T17:20:00.923Z,0.75
2023-02-11T17:22:27.728Z,0.77
2023-02-11T17:24:56.583Z,0.79
2023-02-11T17:27:23.248Z,0.81
2023-02-11T17:29:53.765Z,0.82
2023-02-11T17:32:20.491Z,0.85
2023-02-11T17:34:47.428Z,0.88
2023-02-11T17:37:14.544Z,0.92
2023-02-11T17:39:41.390Z,0.94
2023-02-11T17:42:08.204Z,0.97
2023-02-11T17:44:37.812Z,0.99
2023-02-11T17:47:07.698Z,1.01
2023-02-11T17:49:34.812Z,1.01
2023-02-11T17:52:01.928Z,1.01
2023-02-11T17:54:28.956Z,1.00
2023-02-11T17:56:58.686Z,0.99
2023-02-11T17:59:27.888Z,0.98
2023-02-11T18:01:54.685Z,0.99
2023-02-11T18:04:21.526Z,1.01
2023-02-11T18:06:49.629Z,1.03
2023-02-11T18:09:16.381Z,1.03
2023-02-11T18:11:43.494Z,1.03
2023-02-11T18:14:10.841Z,1.02
2023-02-11T18:16:39.152Z,1.02
2023-02-11T18:19:07.543Z,1.02
2023-02-11T18:21:35.086Z,1.01
2023-02-11T18:24:06.547Z,1.00
2023-02-11T18:26:34.736Z,0.99
2023-02-11T18:29:03.377Z,0.97
2023-02-11T18:31:30.987Z,0.96
2023-02-11T18:33:57.730Z,0.95
2023-02-11T18:36:24.334Z,0.95
2023-02-11T18:38:53.010Z,0.96
2023-02-11T18:41:20.940Z,0.96
2023-02-11T18:44:13.723Z,0.95
2023-02-11T18:46:44.789Z,0.95
2023-02-11T18:49:12.687Z,0.96
2023-02-11T18:51:39.682Z,0.96
2023-02-11T18:54:09.458Z,0.96
2023-02-11T18:56:36.293Z,0.96
2023-02-11T18:59:03.049Z,0.95
2023-02-11T19:01:33.173Z,0.94
2023-02-11T19:04:03.783Z,0.93
2023-02-11T19:06:32.230Z,0.92
2023-02-11T19:09:01.872Z,0.90
2023-02-11T19:11:47.362Z,0.88
2023-02-11T19:14:16.560Z,0.89
2023-02-11T19:16:45.708Z,0.92
2023-02-11T19:19:13.313Z,0.93
2023-02-11T19:21:43.076Z,0.94
2023-02-11T19:24:10.805Z,0.95
2023-02-11T19:26:38.118Z,0.96
2023-02-11T19:29:05.520Z,0.96
2023-02-11T19:31:32.875Z,0.97
2023-02-11T19:34:01.474Z,0.97
2023-02-11T19:36:32.597Z,0.98
2023-02-11T19:39:01.489Z,0.97
2023-02-11T19:41:29.284Z,0.97
2023-02-11T19:43:56.233Z,0.96
2023-02-11T19:46:26.669Z,0.96
2023-02-11T19:48:54.096Z,0.95
2023-02-11T19:51:22.945Z,0.94
2023-02-11T19:53:50.740Z,0.94
2023-02-11T19:56:20.469Z,0.95
2023-02-11T19:58:47.756Z,0.96
2023-02-11T20:01:21.039Z,0.97
2023-02-11T20:03:50.071Z,0.99
2023-02-11T20:06:22.738Z,0.99
2023-02-11T20:08:58.777Z,1.00
2023-02-11T20:11:28.286Z,1.01
2023-02-11T20:13:55.732Z,1.00
2023-02-11T20:16:36.860Z,1.00
2023-02-11T20:19:18.561Z,0.99
2023-02-11T20:21:51.353Z,0.98
2023-02-11T20:24:19.288Z,0.97
2023-02-11T20:26:49.142Z,0.96
2023-02-11T20:29:19.840Z,0.96
2023-02-11T20:31:55.575Z,0.95
2023-02-11T20:34:24.716Z,0.95
2023-02-11T20:36:52.392Z,0.95
2023-02-11T20:39:21.560Z,0.95
2023-02-11T20:41:48.978Z,0.96
2023-02-11T20:44:15.862Z,0.98
2023-02-11T20:46:47.540Z,0.99
2023-02-11T20:49:19.626Z,1.01
2023-02-11T20:51:47.031Z,1.02
2023-02-11T20:54:17.590Z,1.03
2023-02-11T20:56:47.952Z,1.03
2023-02-11T20:59:16.199Z,1.02
2023-02-11T21:01:45.934Z,1.02
2023-02-11T21:04:20.985Z,1.02
2023-02-11T21:06:51.565Z,1.02
2023-02-11T21:09:20.033Z,1.03
2023-02-11T21:11:50.987Z,1.03
2023-02-11T21:14:21.998Z,1.03
2023-02-11T21:16:50.554Z,1.04
2023-02-11T21:19:21.145Z,1.04
2023-02-11T21:21:48.030Z,1.04
2023-02-11T21:24:14.878Z,1.03
2023-02-11T21:26:42.063Z,1.02
2023-02-11T21:29:09.560Z,1.03
2023-02-11T21:31:37.002Z,1.01
2023-02-11T21:34:04.648Z,1.00
2023-02-11T21:36:31.417Z,0.99
2023-02-11T21:38:59.617Z,0.99
2023-02-11T21:41:26.726Z,0.99
2023-02-11T21:43:53.703Z,1.00
2023-02-11T21:46:21.351Z,1.01
2023-02-11T21:48:51.567Z,1.03
2023-02-11T21:51:23.805Z,1.03
2023-02-11T21:53:59.400Z,1.04
2023-02-11T21:56:29.951Z,1.05
2023-02-11T21:58:58.464Z,1.05
2023-02-11T22:01:30.970Z,1.05
2023-02-11T22:03:59.045Z,1.04
2023-02-11T22:06:31.495Z,1.03
2023-02-11T22:09:03.124Z,1.02
2023-02-11T22:11:32.064Z,1.01
2023-02-11T22:14:01.143Z,1.00
2023-02-11T22:16:28.177Z,1.00
2023-02-11T22:18:58.738Z,1.00
2023-02-11T22:21:27.401Z,1.00
2023-02-11T22:23:55.735Z,1.00
2023-02-11T22:26:26.549Z,1.00
2023-02-11T22:28:54.482Z,1.00
2023-02-11T22:31:27.851Z,1.00
2023-02-11T22:33:55.059Z,1.00
2023-02-11T22:36:27.344Z,1.00
2023-02-11T22:38:55.061Z,1.00
2023-02-11T22:41:22.787Z,1.01
2023-02-11T22:43:49.556Z,1.04
2023-02-11T22:46:18.617Z,1.05
2023-02-11T22:48:46.115Z,1.06
2023-02-11T22:51:18.845Z,1.07
2023-02-11T22:53:59.326Z,1.07
2023-02-11T22:56:28.643Z,1.04
2023-02-11T22:59:00.169Z,1.04
2023-02-11T23:01:28.333Z,1.02
2023-02-11T23:03:56.116Z,1.01
2023-02-11T23:06:22.988Z,1.01
2023-02-11T23:08:49.691Z,1.00
2023-02-11T23:11:22.795Z,0.99
2023-02-11T23:13:51.009Z,0.98
2023-02-11T23:16:26.780Z,0.97
2023-02-11T23:18:54.113Z,0.96
2023-02-11T23:21:26.156Z,0.95
2023-02-11T23:23:56.781Z,0.95
2023-02-11T23:26:23.679Z,0.95
2023-02-11T23:28:50.941Z,0.95
2023-02-11T23:31:20.822Z,0.95
2023-02-11T23:33:48.809Z,0.94
2023-02-11T23:36:20.287Z,0.94
2023-02-11T23:38:50.002Z,0.94
2023-02-11T23:41:23.179Z,0.94
2023-02-11T23:43:51.561Z,0.95
2023-02-11T23:46:21.223Z,0.95
2023-02-11T23:48:49.199Z,0.95
2023-02-11T23:51:16.277Z,0.96
2023-02-11T23:53:45.476Z,0.97
2023-02-11T23:56:30.360Z,0.99
2023-02-11T23:58:58.402Z,1.00
